createdAt,value
2022-11-09T00:02:47.883Z,9.81
2022-11-09T00:06:00.294Z,9.92
2022-11-09T00:09:07.829Z,10.04
2022-11-09T00:12:12.215Z,10.09
2022-11-09T00:15:15.676Z,9.78
2022-11-09T00:18:19.494Z,10.05
2022-11-09T00:21:25.949Z,10.15
2022-11-09T00:24:29.651Z,10.25
2022-11-09T00:27:33.032Z,10.30
2022-11-09T00:30:36.794Z,10.30
2022-11-09T00:33:40.766Z,9.98
2022-11-09T00:36:45.820Z,10.01
2022-11-09T00:39:49.232Z,10.02
2022-11-09T00:42:53.251Z,10.21
2022-11-09T00:45:56.614Z,10.26
2022-11-09T00:49:00.426Z,9.98
2022-11-09T00:52:05.908Z,10.24
2022-11-09T00:55:10.357Z,10.36
2022-11-09T00:58:14.948Z,10.31
2022-11-09T01:01:19.028Z,10.28
2022-11-09T01:04:22.505Z,10.20
2022-11-09T01:07:27.718Z,10.05
2022-11-09T01:10:31.187Z,10.17
2022-11-09T01:13:35.778Z,9.95
2022-11-09T01:16:40.339Z,10.12
2022-11-09T01:19:44.482Z,10.21
2022-11-09T01:22:49.418Z,9.51
2022-11-09T01:25:59.545Z,9.75
2022-11-09T01:29:02.944Z,9.84
2022-11-09T01:32:09.021Z,9.24
2022-11-09T01:35:12.734Z,9.18
2022-11-09T01:38:17.931Z,9.30
2022-11-09T01:41:23.101Z,9.65
2022-11-09T01:44:28.630Z,9.79
2022-11-09T01:47:32.341Z,9.80
2022-11-09T01:50:42.551Z,9.88
2022-11-09T01:53:52.070Z,9.98
2022-11-09T01:57:00.977Z,9.80
2022-11-09T02:00:08.911Z,10.00
2022-11-09T02:03:22.938Z,9.95
2022-11-09T02:06:30.488Z,10.08
2022-11-09T02:09:42.047Z,9.71
2022-11-09T02:12:46.418Z,8.69
2022-11-09T02:15:51.189Z,9.00
2022-11-09T02:18:56.542Z,9.16
2022-11-09T02:22:04.030Z,9.06
2022-11-09T02:25:10.341Z,9.32
2022-11-09T02:28:17.432Z,9.28
2022-11-09T02:31:23.692Z,9.28
2022-11-09T02:34:27.834Z,9.11
2022-11-09T02:37:36.793Z,9.40
2022-11-09T02:40:43.773Z,9.32
2022-11-09T02:43:47.475Z,9.06
2022-11-09T02:46:51.107Z,9.33
2022-11-09T02:49:57.889Z,9.28
2022-11-09T02:53:04.710Z,9.41
2022-11-09T02:56:26.535Z,9.36
2022-11-09T02:59:31.976Z,9.00
2022-11-09T03:02:36.346Z,9.19
2022-11-09T03:05:40.155Z,9.24
2022-11-09T03:08:46.076Z,9.49
2022-11-09T03:11:51.521Z,9.59
2022-11-09T03:14:56.190Z,9.72
2022-11-09T03:18:00.351Z,9.48
2022-11-09T03:21:04.533Z,9.36
2022-11-09T03:24:10.065Z,9.10
2022-11-09T03:27:15.884Z,9.22
2022-11-09T03:30:20.037Z,9.00
2022-11-09T03:33:23.997Z,9.06
2022-11-09T03:36:27.687Z,9.03
2022-11-09T03:39:33.461Z,9.24
2022-11-09T03:42:37.266Z,9.29
2022-11-09T03:45:41.833Z,9.38
2022-11-09T03:48:45.539Z,9.40
2022-11-09T03:51:48.978Z,8.74
2022-11-09T03:55:12.622Z,9.14
2022-11-09T03:58:15.986Z,9.31
2022-11-09T04:01:19.657Z,9.28
2022-11-09T04:04:23.157Z,9.15
2022-11-09T04:07:26.859Z,9.18
2022-11-09T04:10:31.650Z,9.16
2022-11-09T04:13:35.353Z,8.90
2022-11-09T04:16:39.354Z,9.24
2022-11-09T04:19:43.826Z,9.18
2022-11-09T04:22:54.553Z,9.12
2022-11-09T04:26:00.675Z,9.11
2022-11-09T04:29:04.017Z,9.42
2022-11-09T04:32:07.738Z,9.47
2022-11-09T04:35:11.183Z,9.57
2022-11-09T04:38:15.485Z,9.43
2022-11-09T04:41:20.214Z,9.28
2022-11-09T04:44:23.878Z,9.30
2022-11-09T04:47:28.441Z,9.12
2022-11-09T04:50:32.772Z,9.42
2022-11-09T04:53:37.083Z,9.29
2022-11-09T04:56:42.219Z,9.32
2022-11-09T04:59:45.695Z,9.29
2022-11-09T05:02:49.508Z,9.27
2022-11-09T05:05:52.898Z,9.27
2022-11-09T05:08:57.261Z,9.33
2022-11-09T05:12:02.061Z,9.40
2022-11-09T05:15:06.412Z,9.45
2022-11-09T05:18:11.076Z,9.11
2022-11-09T05:21:14.936Z,9.23
2022-11-09T05:24:17.277Z,9.04
2022-11-09T05:27:22.330Z,8.47
2022-11-09T05:30:25.822Z,8.75
2022-11-09T05:33:29.513Z,8.42
2022-11-09T05:36:33.621Z,8.24
2022-11-09T05:39:37.376Z,8.22
2022-11-09T05:42:42.560Z,8.46
2022-11-09T05:45:46.539Z,8.74
2022-11-09T05:48:49.911Z,8.49
2022-11-09T05:51:53.624Z,8.46
2022-11-09T05:54:56.988Z,8.24
2022-11-09T05:58:02.079Z,8.58
2022-11-09T06:01:06.521Z,8.60
2022-11-09T06:04:10.180Z,8.54
2022-11-09T06:07:13.611Z,8.63
2022-11-09T06:10:18.234Z,8.55
2022-11-09T06:13:23.172Z,8.38
2022-11-09T06:16:27.142Z,8.33
2022-11-09T06:19:30.840Z,8.24
2022-11-09T06:22:34.731Z,8.39
2022-11-09T06:25:38.082Z,8.40
2022-11-09T06:28:43.965Z,8.55
2022-11-09T06:31:48.975Z,8.42
2022-11-09T06:34:52.864Z,8.45
2022-11-09T06:37:58.563Z,8.80
2022-11-09T06:41:02.592Z,9.04
2022-11-09T06:44:08.314Z,8.95
2022-11-09T06:47:12.282Z,9.15
2022-11-09T06:50:15.876Z,9.46
2022-11-09T06:53:20.545Z,9.50
2022-11-09T06:56:24.109Z,9.73
2022-11-09T06:59:29.843Z,9.72
2022-11-09T07:02:35.079Z,9.83
2022-11-09T07:05:40.191Z,10.05
2022-11-09T07:08:44.048Z,10.23
2022-11-09T07:11:52.515Z,10.20
2022-11-09T07:14:57.937Z,10.19
2022-11-09T07:18:03.226Z,10.02
2022-11-09T07:21:12.862Z,10.24
2022-11-09T07:24:18.106Z,10.40
2022-11-09T07:27:27.331Z,10.41
2022-11-09T07:30:33.360Z,10.28
2022-11-09T07:33:37.460Z,10.39
2022-11-09T07:36:41.152Z,10.50
2022-11-09T07:39:44.872Z,10.63
2022-11-09T07:42:48.705Z,10.55
2022-11-09T07:45:54.246Z,10.46
2022-11-09T07:48:58.097Z,10.54
2022-11-09T07:52:01.710Z,10.67
2022-11-09T07:55:06.360Z,10.74
2022-11-09T07:58:13.322Z,10.71
2022-11-09T08:01:18.775Z,10.83
2022-11-09T08:04:22.339Z,10.78
2022-11-09T08:07:26.590Z,10.90
2022-11-09T08:10:31.744Z,10.89
2022-11-09T08:13:35.868Z,10.96
2022-11-09T08:16:41.350Z,10.88
2022-11-09T08:19:45.571Z,11.02
2022-11-09T08:22:49.506Z,11.03
2022-11-09T08:25:53.447Z,11.21
2022-11-09T08:28:57.320Z,11.29
2022-11-09T08:32:21.181Z,11.37
2022-11-09T08:35:28.113Z,11.36
2022-11-09T08:38:33.265Z,11.33
2022-11-09T08:41:36.925Z,11.38
2022-11-09T08:44:40.877Z,11.25
2022-11-09T08:47:46.272Z,11.40
2022-11-09T08:50:53.725Z,11.33
2022-11-09T08:53:57.312Z,11.42
2022-11-09T08:57:01.073Z,11.68
2022-11-09T09:00:06.734Z,11.72
2022-11-09T09:03:12.154Z,11.70
2022-11-09T09:06:15.548Z,11.98
2022-11-09T09:09:19.658Z,12.12
2022-11-09T09:12:23.301Z,12.17
2022-11-09T09:15:27.281Z,12.31
2022-11-09T09:18:31.966Z,12.15
2022-11-09T09:21:36.133Z,12.42
2022-11-09T09:24:39.759Z,12.44
2022-11-09T09:28:02.002Z,12.52
2022-11-09T09:31:06.147Z,12.60
2022-11-09T09:34:12.564Z,12.43
2022-11-09T09:37:17.755Z,12.41
2022-11-09T09:40:25.221Z,12.49
2022-11-09T09:43:35.258Z,12.45
2022-11-09T09:46:46.768Z,12.20
2022-11-09T09:49:59.178Z,12.14
2022-11-09T09:53:29.090Z,12.23
2022-11-09T09:56:36.235Z,12.24
2022-11-09T09:59:42.245Z,12.34
2022-11-09T10:02:45.858Z,12.28
2022-11-09T10:05:59.765Z,12.32
2022-11-09T10:09:14.310Z,12.43
2022-11-09T10:12:29.735Z,12.49
2022-11-09T10:15:37.922Z,12.63
2022-11-09T10:18:57.715Z,12.48
2022-11-09T10:22:13.726Z,12.56
2022-11-09T10:25:43.479Z,12.40
2022-11-09T10:29:15.164Z,12.49
2022-11-09T10:32:21.463Z,12.51
2022-11-09T10:35:31.274Z,12.53
2022-11-09T10:38:41.603Z,12.66
2022-11-09T10:42:03.856Z,12.73
2022-11-09T10:45:31.529Z,12.80
2022-11-09T10:48:55.825Z,12.74
2022-11-09T10:52:33.320Z,12.78
2022-11-09T10:55:58.162Z,12.86
2022-11-09T10:59:40.844Z,12.93
2022-11-09T11:03:12.108Z,12.89
2022-11-09T11:06:34.629Z,12.85
2022-11-09T11:09:58.036Z,12.93
2022-11-09T11:13:24.551Z,12.84
2022-11-09T11:16:48.461Z,12.94
2022-11-09T11:20:28.747Z,12.99
2022-11-09T11:24:13.222Z,13.08
2022-11-09T11:27:41.538Z,13.13
2022-11-09T11:31:06.607Z,13.20
2022-11-09T11:34:57.927Z,13.21
2022-11-09T11:38:23.876Z,13.28
2022-11-09T11:42:17.161Z,13.32
2022-11-09T11:45:43.705Z,13.35
2022-11-09T11:49:30.788Z,13.44
2022-11-09T11:53:07.726Z,13.48
2022-11-09T11:56:34.099Z,13.56
2022-11-09T12:00:13.076Z,13.58
2022-11-09T12:03:51.903Z,13.65
2022-11-09T12:07:27.656Z,13.69
2022-11-09T12:10:58.383Z,13.73
2022-11-09T12:14:33.478Z,13.73
2022-11-09T12:18:12.778Z,13.79
2022-11-09T12:21:43.463Z,13.78
2022-11-09T12:25:20.557Z,13.83
2022-11-09T12:28:56.994Z,13.94
2022-11-09T12:32:29.975Z,13.87
2022-11-09T12:35:57.366Z,13.96
2022-11-09T12:39:28.298Z,13.98
2022-11-09T12:43:00.546Z,14.03
2022-11-09T12:46:31.027Z,14.05
2022-11-09T12:49:55.002Z,14.11
2022-11-09T12:53:18.008Z,14.13
2022-11-09T12:56:48.845Z,14.11
2022-11-09T13:00:48.705Z,14.12
2022-11-09T13:04:18.824Z,14.14
2022-11-09T13:07:49.772Z,14.10
2022-11-09T13:11:21.274Z,14.14
2022-11-09T13:14:43.388Z,14.16
2022-11-09T13:18:24.703Z,14.13
2022-11-09T13:21:47.161Z,14.16
2022-11-09T13:25:43.408Z,14.11
2022-11-09T13:29:12.008Z,14.17
2022-11-09T13:32:34.573Z,14.18
2022-11-09T13:36:18.027Z,14.11
2022-11-09T13:39:40.166Z,14.13
2022-11-09T13:43:05.588Z,14.20
2022-11-09T13:46:36.994Z,14.18
2022-11-09T13:49:59.659Z,14.21
2022-11-09T13:53:54.074Z,14.12
2022-11-09T13:57:18.091Z,14.19
2022-11-09T14:00:39.968Z,14.14
2022-11-09T14:04:02.953Z,14.19
2022-11-09T14:07:27.323Z,14.20
2022-11-09T14:11:17.416Z,14.13
2022-11-09T14:15:04.491Z,14.08
2022-11-09T14:18:40.230Z,14.09
2022-11-09T14:22:01.942Z,14.08
2022-11-09T14:25:25.986Z,14.08
2022-11-09T14:28:49.352Z,14.10
2022-11-09T14:32:35.846Z,13.97
2022-11-09T14:35:59.076Z,14.03
2022-11-09T14:39:27.832Z,13.95
2022-11-09T14:42:55.580Z,13.91
2022-11-09T14:46:22.314Z,13.82
2022-11-09T14:49:46.221Z,13.81
2022-11-09T14:53:10.014Z,13.84
2022-11-09T14:56:33.966Z,13.85
2022-11-09T14:59:57.793Z,13.79
2022-11-09T15:03:29.441Z,13.74
2022-11-09T15:06:54.205Z,13.72
2022-11-09T15:10:22.797Z,13.68
2022-11-09T15:13:44.888Z,13.66
2022-11-09T15:17:15.606Z,13.62
2022-11-09T15:20:39.171Z,13.64
2022-11-09T15:24:13.039Z,13.59
2022-11-09T15:27:36.763Z,13.55
2022-11-09T15:31:16.462Z,13.50
2022-11-09T15:34:41.092Z,13.48
2022-11-09T15:38:05.140Z,13.42
2022-11-09T15:41:28.551Z,13.29
2022-11-09T15:44:53.890Z,13.10
2022-11-09T15:48:16.137Z,13.13
2022-11-09T15:51:38.240Z,12.99
2022-11-09T15:55:01.713Z,12.87
2022-11-09T15:58:24.360Z,12.73
2022-11-09T16:01:46.641Z,12.62
2022-11-09T16:05:09.545Z,12.54
2022-11-09T16:08:31.978Z,12.37
2022-11-09T16:11:54.963Z,12.35
2022-11-09T16:15:17.220Z,12.09
2022-11-09T16:18:39.598Z,12.00
2022-11-09T16:22:03.305Z,11.94
2022-11-09T16:25:25.239Z,11.89
2022-11-09T16:28:49.933Z,11.93
2022-11-09T16:32:11.788Z,11.88
2022-11-09T16:35:35.709Z,11.80
2022-11-09T16:38:59.235Z,11.57
2022-11-09T16:42:21.663Z,11.52
2022-11-09T16:45:48.943Z,11.30
2022-11-09T16:49:11.117Z,11.24
2022-11-09T16:52:33.387Z,11.05
2022-11-09T16:55:55.766Z,11.03
2022-11-09T16:59:17.884Z,11.01
2022-11-09T17:02:41.682Z,10.94
2022-11-09T17:06:04.645Z,10.92
2022-11-09T17:09:27.027Z,10.69
2022-11-09T17:12:49.140Z,10.53
2022-11-09T17:16:14.143Z,10.67
2022-11-09T17:19:37.807Z,10.52
2022-11-09T17:22:59.970Z,10.47
2022-11-09T17:26:22.936Z,10.47
2022-11-09T17:29:45.233Z,10.28
2022-11-09T17:33:07.213Z,10.23
2022-11-09T17:36:57.298Z,10.13
2022-11-09T17:40:13.482Z,9.90
2022-11-09T17:43:37.384Z,10.04
2022-11-09T17:46:59.296Z,9.88
2022-11-09T17:50:21.663Z,9.97
2022-11-09T17:53:45.507Z,9.87
2022-11-09T17:57:07.610Z,9.92
2022-11-09T18:00:29.425Z,9.65
2022-11-09T18:03:52.221Z,9.62
2022-11-09T18:07:14.389Z,9.54
2022-11-09T18:10:39.104Z,9.68
2022-11-09T18:14:01.141Z,9.48
2022-11-09T18:17:23.339Z,9.57
2022-11-09T18:20:45.618Z,9.62
2022-11-09T18:24:09.290Z,9.64
2022-11-09T18:27:33.055Z,9.55
2022-11-09T18:31:01.731Z,9.35
2022-11-09T18:34:23.491Z,9.39
2022-11-09T18:37:48.441Z,9.30
2022-11-09T18:41:12.099Z,9.37
2022-11-09T18:44:36.137Z,9.46
2022-11-09T18:47:58.357Z,9.63
2022-11-09T18:51:20.805Z,9.66
2022-11-09T18:54:44.197Z,9.52
2022-11-09T18:58:06.745Z,9.27
2022-11-09T19:01:29.828Z,9.27
2022-11-09T19:04:51.901Z,9.29
2022-11-09T19:08:13.903Z,9.28
2022-11-09T19:11:36.110Z,9.24
2022-11-09T19:14:57.966Z,9.05
2022-11-09T19:18:21.687Z,9.17
2022-11-09T19:21:46.748Z,9.02
2022-11-09T19:25:09.956Z,9.01
2022-11-09T19:28:31.851Z,8.93
2022-11-09T19:31:54.971Z,9.16
2022-11-09T19:35:20.608Z,8.93
2022-11-09T19:38:49.301Z,8.76
2022-11-09T19:42:11.051Z,8.52
2022-11-09T19:45:33.058Z,8.79
2022-11-09T19:48:55.705Z,8.69
2022-11-09T19:52:20.292Z,8.35
2022-11-09T19:55:42.293Z,8.41
2022-11-09T19:59:05.790Z,8.61
2022-11-09T20:02:27.779Z,8.55
2022-11-09T20:05:54.866Z,8.72
2022-11-09T20:09:18.958Z,8.62
2022-11-09T20:12:54.769Z,8.64
2022-11-09T20:16:17.941Z,8.67
2022-11-09T20:19:40.021Z,8.28
2022-11-09T20:23:02.081Z,8.36
2022-11-09T20:26:25.783Z,8.55
2022-11-09T20:29:47.532Z,8.46
2022-11-09T20:33:10.673Z,8.32
2022-11-09T20:36:33.595Z,8.32
2022-11-09T20:39:55.702Z,8.22
2022-11-09T20:43:19.037Z,8.06
2022-11-09T20:46:41.449Z,8.40
2022-11-09T20:50:03.074Z,8.48
2022-11-09T20:53:25.117Z,8.38
2022-11-09T20:56:47.240Z,8.31
2022-11-09T21:00:12.556Z,8.17
2022-11-09T21:03:36.384Z,8.29
2022-11-09T21:06:58.618Z,8.41
2022-11-09T21:10:20.675Z,8.51
2022-11-09T21:13:45.867Z,8.40
2022-11-09T21:17:09.572Z,8.60
2022-11-09T21:20:31.582Z,8.59
2022-11-09T21:24:11.428Z,8.52
2022-11-09T21:27:51.131Z,8.34
2022-11-09T21:31:13.953Z,8.31
2022-11-09T21:34:37.634Z,8.33
2022-11-09T21:38:00.233Z,8.54
2022-11-09T21:41:40.678Z,8.50
2022-11-09T21:45:02.832Z,8.35
2022-11-09T21:48:25.364Z,8.16
2022-11-09T21:51:48.631Z,8.30
2022-11-09T21:55:11.201Z,8.32
2022-11-09T21:58:33.588Z,8.17
2022-11-09T22:01:55.735Z,8.47
2022-11-09T22:05:22.734Z,8.29
2022-11-09T22:08:47.430Z,8.43
2022-11-09T22:12:26.933Z,8.55
2022-11-09T22:16:07.790Z,8.64
2022-11-09T22:20:02.110Z,8.69
2022-11-09T22:23:24.479Z,8.62
2022-11-09T22:26:48.039Z,8.58
2022-11-09T22:30:11.065Z,8.61
2022-11-09T22:33:34.016Z,8.50
2022-11-09T22:36:56.839Z,8.48
2022-11-09T22:40:19.579Z,8.69
2022-11-09T22:43:44.516Z,8.75
2022-11-09T22:47:06.554Z,8.26
2022-11-09T22:50:28.668Z,8.41
2022-11-09T22:53:51.212Z,8.60
2022-11-09T22:57:13.953Z,8.77
2022-11-09T23:00:39.228Z,8.94
2022-11-09T23:04:02.071Z,8.98
2022-11-09T23:07:23.987Z,9.04
2022-11-09T23:10:46.038Z,9.04
2022-11-09T23:14:08.318Z,9.00
2022-11-09T23:17:50.799Z,9.02
2022-11-09T23:21:13.991Z,8.89
2022-11-09T23:24:53.697Z,8.83
2022-11-09T23:28:16.232Z,8.97
2022-11-09T23:31:38.508Z,8.90
2022-11-09T23:35:01.821Z,8.65
2022-11-09T23:38:24.989Z,8.40
2022-11-09T23:41:46.660Z,8.65
2022-11-09T23:45:09.564Z,8.63
2022-11-09T23:48:31.928Z,8.78
2022-11-09T23:51:55.289Z,8.28
2022-11-09T23:55:17.533Z,8.46
2022-11-09T23:58:39.877Z,8.10
